Impacts TAF Board INFO
FOR SITUATIONAL AWARENESS. NOT TO BE USED FOR FLIGHT PLANNING PURPOSES.
IDs:

KFLL - Ft Lauderdale-Hollyw, FL, US

Issued at 2106 UTC 13 Dec 2017
Updated at 2238 UTC 13 Dec 2017
Potential Impact None Slight Moderate High
Time2153Z 13/23Z 14/00Z 14/01Z 14/02Z 14/03Z 14/04Z 14/05Z 14/06Z 14/07Z 14/08Z 14/09Z 14/10Z 14/11Z>>
Type OBS PRVL PRVL PRVL PRVL PRVL PRVL PRVL PRVL PRVL PRVL PRVL PRVL PRVL
VIS 10 >6 >6 >6 >6 >6 >6 >6 >6 >6 >6 >6 >6 >6
CIG -- -- -- -- -- -- -- -- -- -- -- -- -- --
Cover FEW FEW FEW FEW FEW FEW FEW FEW FEW FEW FEW FEW FEW FEW
FltCat VFR VFR VFR VFR VFR VFR VFR VFR VFR VFR VFR VFR VFR VFR
WX -- -- -- -- -- -- -- -- -- -- -- -- -- --
WDir 300 300 300 VRB VRB VRB VRB VRB VRB VRB VRB VRB VRB VRB
WSpd 5 8 8 2 2 2 2 2 2 2 2 2 2 2
WGst -- -- -- -- -- -- -- -- -- -- -- -- -- --

Raw TAF
KFLL 132106Z 1321/1424 30008KT P6SM FEW200
  FM140100 VRB02KT P6SM FEW200
  FM141400 VRB05KT P6SM FEW200


Raw METAR
KFLL 132153Z 30005KT 10SM FEW250 18/04 A3004 RMK AO2 SLP170 T01780039
KFLL 132053Z 29007KT 10SM BKN250 19/03 A3004 RMK AO2 SLP171 T01890033 55009
KFLL 131953Z 32005KT 10SM FEW250 19/03 A3004 RMK AO2 SLP170 T01940033

METAR Board
Radar Display
Forecast Discussion

FOR SITUATIONAL AWARENESS. NOT TO BE USED FOR FLIGHT PLANNING PURPOSES.